createdAt,value
2018-09-21T00:01:22.514Z,0.00
2018-09-21T00:02:22.530Z,0.00
2018-09-21T00:04:15.441Z,0.00
2018-09-21T00:05:15.466Z,0.00
2018-09-21T00:07:08.388Z,0.00
2018-09-21T00:08:08.404Z,0.00
2018-09-21T00:10:01.328Z,0.00
2018-09-21T00:11:01.338Z,0.00
2018-09-21T00:12:54.260Z,0.00
2018-09-21T00:13:54.323Z,0.00
2018-09-21T00:15:47.223Z,0.00
2018-09-21T00:16:47.224Z,0.00
2018-09-21T00:18:40.157Z,0.00
2018-09-21T00:19:40.155Z,0.00
2018-09-21T00:21:33.076Z,0.00
2018-09-21T00:22:33.090Z,0.00
2018-09-21T00:24:26.010Z,0.00
2018-09-21T00:25:26.034Z,0.00
2018-09-21T00:27:18.960Z,0.00
2018-09-21T00:28:18.977Z,0.00
2018-09-21T00:30:11.902Z,0.00
2018-09-21T00:31:11.911Z,0.00
2018-09-21T00:33:04.834Z,0.00
2018-09-21T00:34:04.871Z,0.00
2018-09-21T00:35:57.783Z,0.00
2018-09-21T00:36:57.794Z,0.00
2018-09-21T00:38:50.707Z,0.00
2018-09-21T00:39:50.731Z,0.00
2018-09-21T00:41:43.672Z,0.00
2018-09-21T00:42:43.692Z,0.00
2018-09-21T00:44:36.603Z,0.00
2018-09-21T00:45:36.627Z,0.00
2018-09-21T00:47:29.545Z,0.00
2018-09-21T00:48:29.560Z,0.00
2018-09-21T00:50:23.462Z,0.00
2018-09-21T00:51:23.487Z,0.00
2018-09-21T00:53:16.423Z,0.00
2018-09-21T00:54:16.423Z,0.00
2018-09-21T00:56:09.361Z,0.00
2018-09-21T00:57:09.357Z,0.00
2018-09-21T00:59:02.273Z,0.00
2018-09-21T01:00:02.297Z,0.00
2018-09-21T01:01:55.216Z,0.00
2018-09-21T01:02:55.230Z,0.00
2018-09-21T01:04:48.139Z,0.00
2018-09-21T01:05:48.163Z,0.00
2018-09-21T01:07:41.084Z,0.00
2018-09-21T01:08:41.097Z,0.00
2018-09-21T01:10:34.010Z,0.00
2018-09-21T01:11:34.044Z,0.00
2018-09-21T01:13:26.954Z,0.00
2018-09-21T01:14:26.990Z,0.00
2018-09-21T01:16:19.893Z,0.00
2018-09-21T01:17:19.915Z,0.00
2018-09-21T01:19:12.862Z,0.00
2018-09-21T01:20:12.880Z,0.00
2018-09-21T01:22:05.801Z,0.00
2018-09-21T01:23:05.814Z,0.00
2018-09-21T01:24:58.725Z,0.00
2018-09-21T01:25:58.748Z,0.00
2018-09-21T01:27:51.673Z,0.00
2018-09-21T01:28:51.682Z,0.00
2018-09-21T01:30:44.598Z,0.00
2018-09-21T01:31:44.619Z,0.00
2018-09-21T01:33:37.546Z,0.00
2018-09-21T01:34:37.554Z,0.00
2018-09-21T01:36:30.466Z,0.00
2018-09-21T01:37:30.489Z,0.00
2018-09-21T01:39:23.413Z,0.00
2018-09-21T01:40:23.428Z,0.00
2018-09-21T01:42:16.337Z,0.00
2018-09-21T01:43:16.359Z,0.00
2018-09-21T01:45:09.279Z,0.00
2018-09-21T01:46:09.293Z,0.00
2018-09-21T01:48:02.217Z,0.00
2018-09-21T01:49:02.231Z,0.00
2018-09-21T01:50:55.139Z,0.00
2018-09-21T01:51:55.161Z,0.00
2018-09-21T01:53:48.089Z,0.00
2018-09-21T01:54:48.098Z,0.00
2018-09-21T01:56:41.008Z,0.00
2018-09-21T01:57:41.031Z,0.00
2018-09-21T01:59:33.959Z,0.00
2018-09-21T02:00:33.964Z,0.00
2018-09-21T02:02:26.870Z,0.00
2018-09-21T02:03:26.898Z,0.00
2018-09-21T02:05:19.836Z,0.00
2018-09-21T02:06:19.830Z,0.00
2018-09-21T02:08:12.913Z,0.00
2018-09-21T02:09:12.935Z,0.00
2018-09-21T02:11:05.855Z,0.00
2018-09-21T02:12:05.876Z,0.00
2018-09-21T02:13:58.808Z,0.00
2018-09-21T02:14:58.821Z,0.00
2018-09-21T02:16:51.736Z,0.00
2018-09-21T02:17:51.759Z,0.00
2018-09-21T02:19:44.679Z,0.00
2018-09-21T02:20:44.693Z,0.00
2018-09-21T02:22:37.603Z,0.00
2018-09-21T02:23:37.627Z,0.00
2018-09-21T02:25:30.558Z,0.00
2018-09-21T02:26:30.560Z,0.00
2018-09-21T02:28:23.471Z,0.00
2018-09-21T02:29:23.495Z,0.00
2018-09-21T02:31:16.421Z,0.00
2018-09-21T02:32:16.431Z,0.00
2018-09-21T02:34:09.356Z,0.00
2018-09-21T02:35:09.370Z,0.00
2018-09-21T02:37:02.289Z,0.00
2018-09-21T02:38:02.320Z,0.00
2018-09-21T02:39:55.230Z,0.00
2018-09-21T02:40:55.245Z,0.00
2018-09-21T02:42:48.156Z,0.00
2018-09-21T02:43:48.179Z,0.00
2018-09-21T02:45:41.101Z,0.00
2018-09-21T02:46:41.114Z,0.00
2018-09-21T02:48:34.089Z,0.00
2018-09-21T02:49:34.054Z,0.00
2018-09-21T02:51:26.973Z,0.00
2018-09-21T02:52:26.987Z,0.00
2018-09-21T02:54:19.924Z,0.00
2018-09-21T02:55:19.923Z,0.00
2018-09-21T02:57:12.863Z,0.00
2018-09-21T02:58:12.860Z,0.00
2018-09-21T03:00:05.807Z,0.00
2018-09-21T03:01:05.802Z,0.00
2018-09-21T03:02:58.712Z,0.00
2018-09-21T03:03:58.734Z,0.00
2018-09-21T03:05:51.658Z,0.00
2018-09-21T03:06:51.672Z,0.00
2018-09-21T03:08:44.599Z,0.00
2018-09-21T03:09:44.619Z,0.00
2018-09-21T03:11:37.560Z,0.00
2018-09-21T03:12:37.561Z,0.00
2018-09-21T03:14:30.518Z,0.00
2018-09-21T03:15:30.497Z,0.00
2018-09-21T03:17:23.416Z,0.00
2018-09-21T03:18:23.429Z,0.00
2018-09-21T03:20:16.343Z,0.00
2018-09-21T03:21:16.365Z,0.00
2018-09-21T03:23:09.290Z,0.00
2018-09-21T03:24:09.303Z,0.00
2018-09-21T03:26:02.219Z,0.00
2018-09-21T03:27:02.234Z,0.00
2018-09-21T03:28:55.160Z,0.00
2018-09-21T03:29:55.204Z,0.00
2018-09-21T03:31:48.103Z,0.00
2018-09-21T03:32:48.125Z,0.00
2018-09-21T03:34:41.030Z,0.00
2018-09-21T03:35:41.053Z,0.00
2018-09-21T03:37:34.002Z,0.00
2018-09-21T03:38:34.015Z,0.00
2018-09-21T03:40:26.927Z,0.00
2018-09-21T03:41:26.951Z,0.00
2018-09-21T03:43:19.899Z,0.00
2018-09-21T03:44:19.913Z,0.00
2018-09-21T03:46:12.836Z,0.00
2018-09-21T03:47:12.848Z,0.00
2018-09-21T03:49:05.766Z,0.00
2018-09-21T03:50:05.790Z,0.00
2018-09-21T03:51:58.716Z,0.00
2018-09-21T03:52:58.729Z,0.00
2018-09-21T03:54:51.645Z,0.00
2018-09-21T03:55:51.667Z,0.00
2018-09-21T03:57:44.588Z,0.00
2018-09-21T03:58:44.604Z,0.00
2018-09-21T04:00:37.517Z,0.00
2018-09-21T04:01:37.541Z,0.00
2018-09-21T04:03:30.468Z,0.00
2018-09-21T04:04:30.480Z,0.00
2018-09-21T04:06:23.390Z,0.00
2018-09-21T04:07:23.413Z,0.00
2018-09-21T04:09:16.335Z,0.00
2018-09-21T04:10:16.350Z,0.00
2018-09-21T04:12:09.283Z,0.00
2018-09-21T04:13:09.291Z,0.00
2018-09-21T04:15:02.222Z,0.00
2018-09-21T04:16:02.234Z,0.00
2018-09-21T04:17:55.170Z,0.00
2018-09-21T04:18:55.221Z,0.00
2018-09-21T04:20:48.085Z,0.00
2018-09-21T04:21:48.109Z,0.00
2018-09-21T04:23:41.028Z,0.00
2018-09-21T04:24:41.042Z,0.00
2018-09-21T04:26:33.956Z,0.00
2018-09-21T04:27:33.988Z,0.00
2018-09-21T04:29:26.900Z,0.00
2018-09-21T04:30:26.917Z,0.00
2018-09-21T04:32:19.833Z,0.00
2018-09-21T04:33:19.875Z,0.00
2018-09-21T04:35:12.779Z,0.00
2018-09-21T04:36:12.864Z,0.00
2018-09-21T04:38:05.723Z,0.00
2018-09-21T04:39:05.730Z,0.00
2018-09-21T04:40:58.658Z,0.00
2018-09-21T04:41:58.683Z,0.00
2018-09-21T04:43:51.602Z,0.00
2018-09-21T04:44:51.624Z,0.00
2018-09-21T04:46:44.529Z,0.00
2018-09-21T04:47:44.555Z,0.00
2018-09-21T04:49:37.476Z,0.00
2018-09-21T04:50:37.489Z,0.00
2018-09-21T04:52:30.525Z,0.00
2018-09-21T04:53:30.427Z,0.00
2018-09-21T04:55:23.354Z,0.00
2018-09-21T04:56:23.366Z,0.00
2018-09-21T04:58:16.279Z,0.00
2018-09-21T04:59:16.302Z,0.00
2018-09-21T05:01:09.222Z,0.00
2018-09-21T05:02:09.240Z,0.00
2018-09-21T05:04:02.162Z,0.00
2018-09-21T05:05:02.183Z,0.00
2018-09-21T05:06:55.093Z,0.00
2018-09-21T05:07:55.118Z,0.00
2018-09-21T05:09:48.041Z,0.00
2018-09-21T05:10:48.055Z,5.63
2018-09-21T05:12:40.991Z,5.63
2018-09-21T05:13:41.007Z,5.63
2018-09-21T05:15:33.920Z,5.63
2018-09-21T05:16:33.936Z,5.63
2018-09-21T05:18:26.871Z,11.25
2018-09-21T05:19:26.874Z,11.25
2018-09-21T05:21:19.811Z,11.25
2018-09-21T05:22:19.811Z,16.88
2018-09-21T05:24:12.731Z,16.88
2018-09-21T05:25:12.751Z,16.88
2018-09-21T05:27:05.674Z,22.50
2018-09-21T05:28:05.687Z,22.50
2018-09-21T05:29:58.616Z,22.50
2018-09-21T05:30:58.634Z,28.13
2018-09-21T05:32:51.549Z,28.13
2018-09-21T05:33:51.595Z,28.13
2018-09-21T05:35:44.496Z,33.75
2018-09-21T05:36:44.504Z,39.38
2018-09-21T05:38:37.423Z,39.38
2018-09-21T05:39:37.447Z,39.38
2018-09-21T05:41:30.369Z,39.38
2018-09-21T05:42:30.388Z,39.38
2018-09-21T05:44:24.295Z,39.38
2018-09-21T05:45:24.320Z,45.00
2018-09-21T05:47:17.245Z,45.00
2018-09-21T05:48:17.264Z,50.63
2018-09-21T05:50:10.176Z,56.25
2018-09-21T05:51:10.197Z,56.25
2018-09-21T05:53:03.130Z,61.88
2018-09-21T05:54:03.136Z,61.88
2018-09-21T05:55:56.057Z,61.88
2018-09-21T05:56:56.083Z,67.50
2018-09-21T05:58:49.000Z,84.38
2018-09-21T05:59:49.016Z,67.50
2018-09-21T06:01:41.940Z,56.25
2018-09-21T06:02:41.999Z,56.25
2018-09-21T06:04:34.878Z,45.00
2018-09-21T06:05:34.907Z,45.00
2018-09-21T06:07:27.827Z,39.38
2018-09-21T06:08:27.844Z,39.38
2018-09-21T06:10:20.760Z,45.00
2018-09-21T06:11:20.803Z,50.63
2018-09-21T06:13:13.707Z,61.88
2018-09-21T06:14:13.741Z,67.50
2018-09-21T06:16:06.640Z,78.75
2018-09-21T06:17:06.666Z,78.75
2018-09-21T06:18:59.605Z,84.38
2018-09-21T06:20:11.758Z,84.38
2018-09-21T06:21:52.547Z,78.75
2018-09-21T06:22:52.573Z,73.13
2018-09-21T06:24:45.483Z,73.13
2018-09-21T06:25:45.513Z,67.50
2018-09-21T06:27:38.430Z,67.50
2018-09-21T06:28:38.446Z,67.50
2018-09-21T06:30:31.362Z,73.13
2018-09-21T06:31:31.387Z,78.75
2018-09-21T06:33:24.318Z,84.38
2018-09-21T06:34:24.332Z,90.00
2018-09-21T06:36:17.249Z,106.88
2018-09-21T06:37:17.276Z,112.50
2018-09-21T06:39:10.199Z,118.13
2018-09-21T06:40:10.217Z,123.75
2018-09-21T06:42:03.137Z,118.13
2018-09-21T06:43:03.158Z,118.13
2018-09-21T06:44:56.080Z,123.75
2018-09-21T06:45:56.095Z,135.00
2018-09-21T06:47:49.017Z,151.88
2018-09-21T06:48:49.041Z,157.50
2018-09-21T06:50:41.970Z,168.75
2018-09-21T06:51:41.984Z,174.38
2018-09-21T06:53:34.908Z,163.13
2018-09-21T06:54:34.928Z,163.13
2018-09-21T06:56:27.848Z,157.50
2018-09-21T06:57:27.878Z,157.50
2018-09-21T06:59:20.801Z,157.50
2018-09-21T07:00:20.817Z,146.25
2018-09-21T07:02:13.732Z,140.63
2018-09-21T07:03:13.760Z,146.25
2018-09-21T07:05:06.696Z,129.38
2018-09-21T07:06:06.701Z,123.75
2018-09-21T07:07:59.618Z,140.63
2018-09-21T07:08:59.643Z,151.88
2018-09-21T07:10:52.571Z,168.75
2018-09-21T07:11:52.595Z,174.38
2018-09-21T07:13:45.512Z,191.25
2018-09-21T07:14:45.528Z,213.75
2018-09-21T07:16:38.467Z,236.25
2018-09-21T07:17:38.496Z,230.63
2018-09-21T07:19:31.421Z,208.13
2018-09-21T07:20:31.437Z,202.50
2018-09-21T07:22:24.355Z,225.00
2018-09-21T07:23:24.383Z,230.63
2018-09-21T07:25:17.315Z,247.50
2018-09-21T07:26:17.333Z,247.50
2018-09-21T07:28:10.248Z,236.25
2018-09-21T07:29:10.275Z,213.75
2018-09-21T07:31:03.210Z,168.75
2018-09-21T07:32:03.228Z,151.88
2018-09-21T07:33:56.147Z,118.13
2018-09-21T07:34:56.170Z,118.13
2018-09-21T07:36:49.100Z,123.75
2018-09-21T07:37:49.121Z,129.38
2018-09-21T07:39:42.054Z,129.38
2018-09-21T07:40:42.072Z,123.75
2018-09-21T07:42:34.992Z,151.88
2018-09-21T07:43:35.019Z,157.50
2018-09-21T07:45:27.947Z,180.00
2018-09-21T07:46:27.970Z,174.38
2018-09-21T07:48:20.915Z,163.13
2018-09-21T07:49:20.910Z,163.13
2018-09-21T07:51:13.835Z,174.38
2018-09-21T07:52:13.854Z,163.13
2018-09-21T07:54:06.804Z,151.88
2018-09-21T07:55:06.798Z,146.25
2018-09-21T07:56:59.725Z,146.25
2018-09-21T07:57:59.742Z,151.88
2018-09-21T07:59:52.659Z,163.13
2018-09-21T08:00:52.679Z,174.38
2018-09-21T08:02:45.614Z,185.63
2018-09-21T08:03:45.639Z,185.63
2018-09-21T08:05:38.560Z,180.00
2018-09-21T08:06:38.572Z,174.38
2018-09-21T08:08:31.493Z,196.88
2018-09-21T08:09:31.525Z,202.50
2018-09-21T08:11:24.458Z,202.50
2018-09-21T08:12:24.472Z,196.88
2018-09-21T08:14:17.398Z,163.13
2018-09-21T08:15:17.421Z,140.63
2018-09-21T08:17:10.358Z,140.63
2018-09-21T08:18:10.377Z,123.75
2018-09-21T08:20:03.299Z,174.38
2018-09-21T08:21:03.323Z,185.63
2018-09-21T08:22:56.253Z,174.38
2018-09-21T08:23:56.270Z,157.50
2018-09-21T08:25:49.188Z,151.88
2018-09-21T08:26:49.218Z,146.25
2018-09-21T08:28:42.143Z,146.25
2018-09-21T08:29:42.161Z,157.50
2018-09-21T08:31:35.169Z,163.13
2018-09-21T08:32:35.102Z,174.38
2018-09-21T08:34:28.021Z,151.88
2018-09-21T08:35:28.047Z,135.00
2018-09-21T08:37:21.106Z,140.63
2018-09-21T08:38:20.992Z,151.88
2018-09-21T08:40:13.928Z,174.38
2018-09-21T08:41:13.939Z,163.13
2018-09-21T08:43:06.872Z,146.25
2018-09-21T08:44:06.882Z,146.25
2018-09-21T08:45:59.806Z,135.00
2018-09-21T08:46:59.828Z,135.00
2018-09-21T08:48:52.755Z,129.38
2018-09-21T08:49:52.771Z,129.38
2018-09-21T08:51:45.696Z,123.75
2018-09-21T08:52:45.716Z,123.75
2018-09-21T08:54:38.642Z,140.63
2018-09-21T08:55:38.668Z,135.00
2018-09-21T08:57:31.590Z,101.25
2018-09-21T08:58:31.603Z,90.00
2018-09-21T09:00:24.543Z,90.00
2018-09-21T09:01:24.567Z,95.63
2018-09-21T09:03:17.520Z,95.63
2018-09-21T09:04:17.514Z,101.25
2018-09-21T09:06:10.432Z,112.50
2018-09-21T09:07:10.457Z,123.75
2018-09-21T09:09:03.381Z,157.50
2018-09-21T09:10:03.404Z,168.75
2018-09-21T09:11:56.318Z,168.75
2018-09-21T09:12:56.341Z,168.75
2018-09-21T09:14:49.268Z,146.25
2018-09-21T09:15:49.284Z,118.13
2018-09-21T09:17:42.203Z,90.00
2018-09-21T09:18:42.234Z,84.38
2018-09-21T09:20:35.161Z,84.38
2018-09-21T09:21:35.180Z,106.88
2018-09-21T09:23:28.108Z,90.00
2018-09-21T09:24:28.166Z,101.25
2018-09-21T09:26:21.062Z,90.00
2018-09-21T09:27:21.072Z,112.50
2018-09-21T09:29:13.994Z,146.25
2018-09-21T09:30:14.009Z,146.25
2018-09-21T09:32:06.919Z,101.25
2018-09-21T09:33:06.954Z,84.38
2018-09-21T09:34:59.896Z,61.88
2018-09-21T09:35:59.894Z,67.50
2018-09-21T09:37:52.810Z,50.63
2018-09-21T09:38:52.833Z,45.00
2018-09-21T09:40:45.760Z,39.38
2018-09-21T09:41:45.776Z,39.38
2018-09-21T09:43:38.691Z,61.88
2018-09-21T09:44:38.716Z,78.75
2018-09-21T09:46:31.643Z,146.25
2018-09-21T09:47:31.665Z,84.38
2018-09-21T09:49:24.575Z,84.38
2018-09-21T09:50:24.609Z,50.63
2018-09-21T09:52:17.526Z,22.50
2018-09-21T09:53:17.544Z,22.50
2018-09-21T09:55:10.482Z,28.13
2018-09-21T09:56:10.493Z,56.25
2018-09-21T09:58:03.409Z,129.38
2018-09-21T09:59:03.433Z,95.63
2018-09-21T10:00:56.351Z,151.88
2018-09-21T10:01:56.363Z,174.38
2018-09-21T10:03:49.295Z,230.63
2018-09-21T10:04:49.302Z,275.63
2018-09-21T10:06:42.221Z,241.88
2018-09-21T10:07:42.234Z,270.00
2018-09-21T10:09:35.146Z,202.50
2018-09-21T10:10:35.169Z,185.63
2018-09-21T10:12:28.089Z,135.00
2018-09-21T10:13:28.102Z,112.50
2018-09-21T10:15:21.013Z,129.38
2018-09-21T10:16:21.036Z,135.00
2018-09-21T10:18:13.958Z,135.00
2018-09-21T10:19:13.980Z,135.00
2018-09-21T10:21:06.887Z,129.38
2018-09-21T10:22:06.899Z,140.63
2018-09-21T10:24:00.034Z,151.88
2018-09-21T10:25:00.055Z,151.88
2018-09-21T10:26:52.984Z,157.50
2018-09-21T10:27:53.105Z,180.00
2018-09-21T10:29:45.899Z,168.75
2018-09-21T10:30:45.918Z,191.25
2018-09-21T10:32:38.839Z,213.75
2018-09-21T10:33:38.992Z,230.63
2018-09-21T10:35:31.986Z,180.00
2018-09-21T10:36:31.802Z,174.38
2018-09-21T10:38:24.712Z,168.75
2018-09-21T10:39:24.733Z,163.13
2018-09-21T10:41:17.656Z,180.00
2018-09-21T10:42:17.687Z,180.00
2018-09-21T10:44:10.589Z,180.00
2018-09-21T10:45:10.602Z,180.00
2018-09-21T10:47:03.523Z,213.75
2018-09-21T10:48:03.538Z,191.25
2018-09-21T10:49:56.459Z,185.63
2018-09-21T10:50:56.479Z,185.63
2018-09-21T10:52:49.422Z,191.25
2018-09-21T10:53:49.412Z,185.63
2018-09-21T10:55:42.323Z,185.63
2018-09-21T10:56:42.345Z,191.25
2018-09-21T10:58:35.292Z,253.13
2018-09-21T10:59:35.280Z,253.13
2018-09-21T11:01:28.190Z,185.63
2018-09-21T11:02:28.213Z,168.75
2018-09-21T11:04:21.136Z,191.25
2018-09-21T11:05:21.147Z,202.50
2018-09-21T11:07:14.080Z,219.38
2018-09-21T11:08:14.079Z,241.88
2018-09-21T11:10:06.998Z,258.75
2018-09-21T11:11:07.012Z,264.38
2018-09-21T11:12:59.937Z,258.75
2018-09-21T11:13:59.943Z,247.50
2018-09-21T11:15:52.863Z,247.50
2018-09-21T11:16:52.877Z,247.50
2018-09-21T11:18:45.801Z,275.63
2018-09-21T11:19:45.813Z,270.00
2018-09-21T11:21:38.724Z,270.00
2018-09-21T11:22:38.746Z,270.00
2018-09-21T11:24:31.665Z,292.50
2018-09-21T11:25:31.678Z,331.88
2018-09-21T11:27:24.621Z,303.75
2018-09-21T11:28:24.613Z,281.25
2018-09-21T11:30:17.537Z,326.25
2018-09-21T11:31:17.547Z,303.75
2018-09-21T11:33:10.510Z,399.38
2018-09-21T11:34:10.484Z,455.63
2018-09-21T11:36:03.398Z,320.63
2018-09-21T11:37:03.420Z,264.38
2018-09-21T11:38:56.346Z,331.88
2018-09-21T11:39:56.353Z,371.25
2018-09-21T11:41:49.269Z,286.88
2018-09-21T11:42:49.291Z,270.00
2018-09-21T11:44:42.217Z,292.50
2018-09-21T11:45:42.230Z,331.88
2018-09-21T11:47:35.231Z,360.00
2018-09-21T11:48:35.163Z,315.00
2018-09-21T11:50:28.084Z,343.13
2018-09-21T11:51:28.101Z,376.88
2018-09-21T11:53:21.013Z,343.13
2018-09-21T11:54:21.034Z,320.63
2018-09-21T11:56:13.956Z,320.63
2018-09-21T11:57:13.971Z,270.00
2018-09-21T11:59:06.895Z,191.25
2018-09-21T12:00:06.910Z,191.25
2018-09-21T12:01:59.820Z,253.13
2018-09-21T12:02:59.844Z,286.88
2018-09-21T12:04:52.769Z,320.63
2018-09-21T12:05:52.780Z,326.25
2018-09-21T12:07:45.690Z,275.63
2018-09-21T12:08:45.715Z,270.00
2018-09-21T12:10:38.696Z,236.25
2018-09-21T12:11:38.651Z,225.00
2018-09-21T12:13:31.561Z,292.50
2018-09-21T12:14:31.585Z,241.88
2018-09-21T12:16:24.507Z,253.13
2018-09-21T12:17:24.526Z,236.25
2018-09-21T12:19:17.436Z,230.63
2018-09-21T12:20:17.455Z,219.38
2018-09-21T12:22:10.396Z,202.50
2018-09-21T12:23:10.390Z,264.38
2018-09-21T12:25:03.309Z,309.38
2018-09-21T12:26:03.347Z,382.50
2018-09-21T12:27:56.241Z,433.13
2018-09-21T12:28:56.258Z,421.88
2018-09-21T12:30:49.195Z,438.75
2018-09-21T12:31:49.207Z,438.75
2018-09-21T12:33:42.121Z,382.50
2018-09-21T12:34:42.145Z,320.63
2018-09-21T12:36:35.066Z,365.63
2018-09-21T12:37:35.082Z,309.38
2018-09-21T12:39:28.001Z,213.75
2018-09-21T12:40:28.023Z,208.13
2018-09-21T12:42:20.996Z,151.88
2018-09-21T12:43:21.007Z,84.38
2018-09-21T12:45:13.922Z,157.50
2018-09-21T12:46:13.945Z,101.25
2018-09-21T12:48:06.866Z,95.63
2018-09-21T12:49:06.879Z,84.38
2018-09-21T12:50:59.827Z,84.38
2018-09-21T12:51:59.833Z,101.25
2018-09-21T12:53:52.734Z,56.25
2018-09-21T12:54:52.751Z,67.50
2018-09-21T12:56:45.685Z,106.88
2018-09-21T12:57:45.702Z,106.88
2018-09-21T12:59:38.606Z,135.00
2018-09-21T13:00:38.628Z,163.13
2018-09-21T13:02:31.605Z,118.13
2018-09-21T13:03:31.567Z,191.25
2018-09-21T13:05:24.477Z,298.13
2018-09-21T13:06:24.577Z,286.88
2018-09-21T13:08:17.421Z,331.88
2018-09-21T13:09:17.436Z,309.38
2018-09-21T13:11:10.347Z,326.25
2018-09-21T13:12:10.382Z,315.00
2018-09-21T13:14:03.289Z,315.00
2018-09-21T13:15:03.307Z,326.25
2018-09-21T13:16:56.273Z,303.75
2018-09-21T13:17:56.273Z,286.88
2018-09-21T13:19:49.168Z,258.75
2018-09-21T13:20:49.191Z,264.38
2018-09-21T13:22:42.112Z,303.75
2018-09-21T13:23:42.126Z,286.88
2018-09-21T13:25:35.066Z,331.88
2018-09-21T13:26:35.083Z,326.25
2018-09-21T13:28:28.010Z,275.63
2018-09-21T13:29:28.006Z,258.75
2018-09-21T13:31:20.919Z,281.25
2018-09-21T13:32:21.044Z,286.88
2018-09-21T13:34:13.861Z,281.25
2018-09-21T13:35:13.904Z,275.63
2018-09-21T13:37:07.282Z,270.00
2018-09-21T13:38:07.307Z,253.13
2018-09-21T13:40:00.276Z,253.13
2018-09-21T13:41:00.243Z,247.50
2018-09-21T13:42:53.177Z,236.25
2018-09-21T13:43:53.180Z,236.25
2018-09-21T13:45:47.088Z,253.13
2018-09-21T13:46:47.111Z,236.25
2018-09-21T13:48:40.068Z,275.63
2018-09-21T13:49:40.060Z,292.50
2018-09-21T13:51:32.957Z,275.63
2018-09-21T13:52:32.976Z,241.88
2018-09-21T13:54:25.902Z,270.00
2018-09-21T13:55:25.916Z,258.75
2018-09-21T13:57:18.830Z,303.75
2018-09-21T13:58:18.844Z,292.50
2018-09-21T14:00:11.793Z,281.25
2018-09-21T14:01:11.804Z,281.25
2018-09-21T14:03:04.715Z,275.63
2018-09-21T14:04:04.740Z,281.25
2018-09-21T14:05:57.661Z,258.75
2018-09-21T14:06:57.674Z,270.00
2018-09-21T14:08:50.593Z,309.38
2018-09-21T14:09:50.607Z,286.88
2018-09-21T14:11:43.516Z,286.88
2018-09-21T14:12:43.540Z,286.88
2018-09-21T14:14:36.459Z,270.00
2018-09-21T14:15:36.519Z,270.00
2018-09-21T14:17:29.388Z,241.88
2018-09-21T14:18:29.412Z,264.38
2018-09-21T14:20:22.525Z,286.88
2018-09-21T14:21:22.613Z,292.50
2018-09-21T14:23:15.458Z,286.88
2018-09-21T14:24:15.473Z,309.38
2018-09-21T14:26:08.416Z,270.00
2018-09-21T14:27:08.427Z,241.88
2018-09-21T14:29:01.352Z,281.25
2018-09-21T14:30:01.381Z,309.38
2018-09-21T14:31:54.277Z,270.00
2018-09-21T14:32:54.293Z,258.75
2018-09-21T14:34:47.216Z,281.25
2018-09-21T14:35:47.237Z,281.25
2018-09-21T14:37:40.139Z,225.00
2018-09-21T14:38:40.162Z,253.13
2018-09-21T14:40:33.081Z,225.00
2018-09-21T14:41:33.097Z,225.00
2018-09-21T14:43:26.008Z,180.00
2018-09-21T14:44:26.032Z,180.00
2018-09-21T14:46:18.948Z,163.13
2018-09-21T14:47:18.964Z,140.63
2018-09-21T14:49:11.880Z,118.13
2018-09-21T14:50:11.900Z,112.50
2018-09-21T14:52:04.828Z,118.13
2018-09-21T14:53:04.832Z,118.13
2018-09-21T14:54:57.766Z,106.88
2018-09-21T14:55:57.765Z,106.88
2018-09-21T14:57:50.722Z,106.88
2018-09-21T14:58:50.701Z,118.13
2018-09-21T15:00:43.618Z,129.38
2018-09-21T15:01:43.634Z,123.75
2018-09-21T15:03:36.556Z,118.13
2018-09-21T15:04:36.582Z,106.88
2018-09-21T15:06:29.504Z,101.25
2018-09-21T15:07:29.514Z,106.88
2018-09-21T15:09:22.430Z,101.25
2018-09-21T15:10:22.453Z,101.25
2018-09-21T15:12:15.373Z,101.25
2018-09-21T15:13:15.377Z,101.25
2018-09-21T15:15:08.295Z,101.25
2018-09-21T15:16:08.316Z,101.25
2018-09-21T15:18:01.237Z,101.25
2018-09-21T15:19:01.248Z,95.63
2018-09-21T15:20:54.162Z,95.63
2018-09-21T15:21:54.183Z,95.63
2018-09-21T15:23:54.724Z,95.63
2018-09-21T15:24:47.608Z,84.38
2018-09-21T15:26:47.647Z,95.63
2018-09-21T15:27:40.538Z,101.25
2018-09-21T15:29:33.448Z,95.63
2018-09-21T15:30:33.467Z,95.63
2018-09-21T15:32:26.387Z,95.63
2018-09-21T15:33:26.425Z,90.00
2018-09-21T15:35:19.308Z,90.00
2018-09-21T15:36:19.331Z,90.00
2018-09-21T15:38:12.303Z,78.75
2018-09-21T15:39:12.309Z,78.75
2018-09-21T15:41:05.168Z,78.75
2018-09-21T15:42:05.195Z,73.13
2018-09-21T15:43:58.113Z,78.75
2018-09-21T15:44:58.137Z,84.38
2018-09-21T15:46:51.032Z,84.38
2018-09-21T15:47:51.056Z,84.38
2018-09-21T15:49:43.973Z,84.38
2018-09-21T15:50:44.521Z,84.38
2018-09-21T15:52:36.966Z,84.38
2018-09-21T15:53:36.918Z,78.75
2018-09-21T15:55:29.867Z,78.75
2018-09-21T15:56:29.863Z,78.75
2018-09-21T15:58:22.780Z,78.75
2018-09-21T15:59:22.795Z,78.75
2018-09-21T16:01:15.702Z,78.75
2018-09-21T16:02:15.723Z,78.75
2018-09-21T16:04:08.641Z,73.13
2018-09-21T16:05:08.652Z,73.13
2018-09-21T16:07:02.610Z,73.13
2018-09-21T16:08:02.580Z,73.13
2018-09-21T16:09:55.500Z,73.13
2018-09-21T16:10:55.509Z,73.13
2018-09-21T16:12:48.418Z,73.13
2018-09-21T16:13:48.440Z,78.75
2018-09-21T16:15:41.364Z,84.38
2018-09-21T16:16:41.373Z,84.38
2018-09-21T16:18:34.299Z,73.13
2018-09-21T16:19:34.307Z,67.50
2018-09-21T16:21:27.219Z,73.13
2018-09-21T16:22:27.241Z,73.13
2018-09-21T16:24:20.198Z,101.25
2018-09-21T16:25:20.170Z,84.38
2018-09-21T16:27:13.077Z,73.13
2018-09-21T16:28:13.132Z,67.50
2018-09-21T16:30:06.018Z,67.50
2018-09-21T16:31:06.028Z,61.88
2018-09-21T16:32:59.001Z,56.25
2018-09-21T16:33:58.958Z,56.25
2018-09-21T16:35:51.932Z,56.25
2018-09-21T16:36:51.942Z,56.25
2018-09-21T16:38:44.856Z,50.63
2018-09-21T16:39:44.908Z,50.63
2018-09-21T16:41:37.835Z,50.63
2018-09-21T16:42:37.800Z,50.63
2018-09-21T16:44:30.777Z,45.00
2018-09-21T16:45:30.764Z,45.00
2018-09-21T16:47:23.646Z,45.00
2018-09-21T16:48:23.708Z,45.00
2018-09-21T16:50:16.586Z,39.38
2018-09-21T16:51:16.617Z,39.38
2018-09-21T16:53:09.504Z,39.38
2018-09-21T16:54:09.575Z,39.38
2018-09-21T16:56:03.109Z,33.75
2018-09-21T16:57:02.504Z,33.75
2018-09-21T16:58:55.455Z,33.75
2018-09-21T16:59:55.441Z,33.75
2018-09-21T17:01:48.425Z,28.13
2018-09-21T17:02:48.358Z,28.13
2018-09-21T17:04:41.856Z,28.13
2018-09-21T17:05:41.294Z,28.13
2018-09-21T17:07:34.243Z,22.50
2018-09-21T17:08:34.220Z,22.50
2018-09-21T17:10:27.172Z,16.88
2018-09-21T17:11:27.261Z,16.88
2018-09-21T17:13:20.067Z,16.88
2018-09-21T17:14:20.058Z,16.88
2018-09-21T17:16:13.006Z,11.25
2018-09-21T17:17:12.999Z,11.25
2018-09-21T17:19:05.936Z,11.25
2018-09-21T17:20:05.967Z,11.25
2018-09-21T17:21:58.828Z,5.63
2018-09-21T17:22:58.838Z,5.63
2018-09-21T17:24:51.772Z,5.63
2018-09-21T17:25:51.794Z,5.63
2018-09-21T17:27:44.714Z,5.63
2018-09-21T17:28:44.740Z,5.63
2018-09-21T17:30:37.645Z,0.00
2018-09-21T17:31:37.667Z,0.00
2018-09-21T17:33:30.576Z,0.00
2018-09-21T17:34:30.588Z,0.00
2018-09-21T17:36:23.504Z,0.00
2018-09-21T17:37:23.512Z,0.00
2018-09-21T17:39:16.422Z,0.00
2018-09-21T17:40:16.440Z,0.00
2018-09-21T17:42:09.359Z,0.00
2018-09-21T17:43:09.371Z,0.00
2018-09-21T17:45:02.281Z,0.00
2018-09-21T17:46:02.299Z,0.00
2018-09-21T17:47:55.427Z,0.00
2018-09-21T17:48:55.439Z,0.00
2018-09-21T17:50:48.352Z,0.00
2018-09-21T17:51:48.367Z,0.00
2018-09-21T17:53:41.278Z,0.00
2018-09-21T17:54:41.290Z,0.00
2018-09-21T17:56:34.195Z,0.00
2018-09-21T17:57:34.220Z,0.00
2018-09-21T17:59:28.132Z,0.00
2018-09-21T18:00:28.143Z,0.00
2018-09-21T18:02:21.054Z,0.00
2018-09-21T18:03:21.065Z,0.00
2018-09-21T18:05:13.973Z,0.00
2018-09-21T18:06:13.993Z,0.00
2018-09-21T18:08:06.907Z,0.00
2018-09-21T18:09:06.922Z,0.00
2018-09-21T18:10:59.861Z,0.00
2018-09-21T18:11:59.872Z,0.00
2018-09-21T18:13:52.778Z,0.00
2018-09-21T18:14:52.787Z,0.00
2018-09-21T18:16:45.691Z,0.00
2018-09-21T18:17:45.717Z,0.00
2018-09-21T18:19:38.642Z,0.00
2018-09-21T18:20:38.641Z,0.00
2018-09-21T18:22:31.545Z,0.00
2018-09-21T18:23:31.567Z,0.00
2018-09-21T18:25:24.516Z,0.00
2018-09-21T18:26:24.496Z,0.00
2018-09-21T18:28:17.418Z,0.00
2018-09-21T18:29:17.455Z,0.00
2018-09-21T18:31:10.324Z,0.00